Time;durP1;ratioP1;P1;durP2;ratioP2;P2;SDS_P1;SDS_P2;PMS_P1;PMS_P2;Temp;Humidity;BMP_temperature;BMP_pressure;BME280_temperature;BME280_humidity;BME280_pressure;Samples;Min_cycle;Max_cycle;Signal;HPM_P1;HPM_P2
2023/09/06 00:00:33;;;;;;;94.23;90.23;;;;;;;;;;5070023;28;20431;-42
2023/09/06 00:03:01;;;;;;;96.63;92.53;;;;;;;;;;5053850;28;20438;-41
2023/09/06 00:05:29;;;;;;;97.60;93.17;;;;;;;;;;5054079;28;20471;-40
2023/09/06 00:07:57;;;;;;;90.50;86.27;;;;;;;;;;5033853;28;20523;-40
2023/09/06 00:10:24;;;;;;;90.40;86.40;;;;;;;;;;5050117;28;20497;-41
2023/09/06 00:12:52;;;;;;;93.77;89.27;;;;;;;;;;5041904;28;20476;-41
2023/09/06 00:15:21;;;;;;;99.30;95.00;;;;;;;;;;5048570;28;20483;-43
2023/09/06 00:17:48;;;;;;;101.83;97.30;;;;;;;;;;5060361;28;20436;-40
2023/09/06 00:20:19;;;;;;;108.83;103.43;;;;;;;;;;5061716;28;20858;-41
2023/09/06 00:22:47;;;;;;;109.30;104.27;;;;;;;;;;5062909;28;20857;-41
2023/09/06 00:25:15;;;;;;;108.97;103.60;;;;;;;;;;5053244;28;20808;-43
2023/09/06 00:27:43;;;;;;;109.03;103.80;;;;;;;;;;5060715;28;20435;-39
2023/09/06 00:30:10;;;;;;;115.77;110.20;;;;;;;;;;5053516;28;20462;-40
2023/09/06 00:32:39;;;;;;;118.10;112.10;;;;;;;;;;5052781;28;20440;-44
2023/09/06 00:35:07;;;;;;;124.80;118.40;;;;;;;;;;5056128;28;20512;-40
2023/09/06 00:37:35;;;;;;;125.70;119.33;;;;;;;;;;5041789;28;20432;-41
2023/09/06 00:40:10;;;;;;;123.57;117.57;;;;;;;;;;5040244;28;20432;-42
2023/09/06 00:42:37;;;;;;;116.57;110.87;;;;;;;;;;5045033;28;20438;-43
2023/09/06 00:45:05;;;;;;;122.53;116.43;;;;;;;;;;5052561;28;20463;-41
2023/09/06 00:47:33;;;;;;;117.70;111.80;;;;;;;;;;5033670;28;20444;-40
2023/09/06 00:50:02;;;;;;;126.37;120.13;;;;;;;;;;5047705;28;20431;-40
2023/09/06 00:52:30;;;;;;;114.97;109.60;;;;;;;;;;5044513;28;20467;-41
2023/09/06 00:55:01;;;;;;;120.50;114.90;;;;;;;;;;5040996;28;20529;-40
2023/09/06 00:57:29;;;;;;;122.43;116.73;;;;;;;;;;5060897;28;20431;-42
2023/09/06 00:59:58;;;;;;;118.87;113.43;;;;;;;;;;5067112;28;20435;-43
2023/09/06 01:02:26;;;;;;;117.17;111.57;;;;;;;;;;5064547;28;20430;-40
2023/09/06 01:04:54;;;;;;;122.97;116.67;;;;;;;;;;5058290;28;20478;-40
2023/09/06 01:07:25;;;;;;;126.70;120.70;;;;;;;;;;5060734;28;20440;-41
2023/09/06 01:09:52;;;;;;;130.10;123.67;;;;;;;;;;5066464;28;20473;-42
2023/09/06 01:12:20;;;;;;;139.73;132.83;;;;;;;;;;5063168;28;20951;-41
2023/09/06 01:14:47;;;;;;;128.70;122.60;;;;;;;;;;5059998;28;20554;-40
2023/09/06 01:17:17;;;;;;;135.63;128.73;;;;;;;;;;5060571;28;20442;-39
2023/09/06 01:19:46;;;;;;;140.73;133.70;;;;;;;;;;5052227;28;20435;-40
2023/09/06 01:22:20;;;;;;;144.80;136.30;;;;;;;;;;5060670;28;20451;-45
2023/09/06 01:24:50;;;;;;;140.27;132.97;;;;;;;;;;5047556;28;20472;-40
2023/09/06 01:27:17;;;;;;;137.17;131.07;;;;;;;;;;5035836;28;20432;-43
2023/09/06 01:29:45;;;;;;;141.73;134.73;;;;;;;;;;5052070;28;20446;-40
2023/09/06 01:32:12;;;;;;;144.57;137.83;;;;;;;;;;5044059;28;20915;-41
2023/09/06 01:34:40;;;;;;;138.63;132.20;;;;;;;;;;5043191;28;20489;-40
2023/09/06 01:37:07;;;;;;;142.67;135.80;;;;;;;;;;5043884;28;20462;-43
2023/09/06 01:39:35;;;;;;;149.43;141.13;;;;;;;;;;5041060;28;20871;-44
2023/09/06 01:42:04;;;;;;;135.27;128.67;;;;;;;;;;5040640;28;20436;-45
2023/09/06 01:44:32;;;;;;;139.60;132.90;;;;;;;;;;5047248;28;20494;-40
2023/09/06 01:47:03;;;;;;;128.17;122.40;;;;;;;;;;5051230;28;20463;-40
2023/09/06 01:49:31;;;;;;;127.50;121.50;;;;;;;;;;5062266;28;20526;-41
2023/09/06 01:52:01;;;;;;;122.07;116.50;;;;;;;;;;5071761;28;20434;-46
2023/09/06 01:54:28;;;;;;;126.60;121.00;;;;;;;;;;5069901;28;20481;-41
2023/09/06 01:56:56;;;;;;;120.77;115.23;;;;;;;;;;5064994;28;21012;-43
2023/09/06 01:59:24;;;;;;;121.80;116.37;;;;;;;;;;5054042;28;20435;-42
2023/09/06 02:01:54;;;;;;;130.50;124.10;;;;;;;;;;5051742;28;20804;-40
2023/09/06 02:04:22;;;;;;;132.30;126.00;;;;;;;;;;5059562;28;20450;-41
2023/09/06 02:06:49;;;;;;;138.20;131.93;;;;;;;;;;5051132;28;20463;-42
2023/09/06 02:09:19;;;;;;;129.30;123.20;;;;;;;;;;5059957;28;20441;-42
2023/09/06 02:11:46;;;;;;;148.50;141.00;;;;;;;;;;5071355;28;20439;-40
2023/09/06 02:14:14;;;;;;;149.33;142.10;;;;;;;;;;5054884;28;20479;-41
2023/09/06 02:16:45;;;;;;;157.03;149.27;;;;;;;;;;5053506;28;20459;-41
2023/09/06 02:19:13;;;;;;;167.23;158.13;;;;;;;;;;5051570;28;20469;-43
2023/09/06 02:21:41;;;;;;;159.77;150.97;;;;;;;;;;5039799;28;20436;-40
2023/09/06 02:24:08;;;;;;;164.67;155.60;;;;;;;;;;5031228;28;20457;-42
2023/09/06 02:26:37;;;;;;;169.33;159.90;;;;;;;;;;5055610;28;20541;-40
2023/09/06 02:29:04;;;;;;;164.33;155.47;;;;;;;;;;5066326;28;20811;-40
2023/09/06 02:31:32;;;;;;;171.67;161.60;;;;;;;;;;5061226;28;20436;-41
2023/09/06 02:34:03;;;;;;;171.73;161.20;;;;;;;;;;5056886;28;20541;-40
2023/09/06 02:36:30;;;;;;;171.40;161.43;;;;;;;;;;5053289;28;20455;-42
2023/09/06 02:38:58;;;;;;;173.87;163.77;;;;;;;;;;5039776;28;20463;-40
2023/09/06 02:41:25;;;;;;;163.33;154.53;;;;;;;;;;5048076;28;20459;-41
2023/09/06 02:43:53;;;;;;;167.23;158.13;;;;;;;;;;5039618;28;20452;-40
2023/09/06 02:46:20;;;;;;;171.30;161.20;;;;;;;;;;5030946;28;20539;-41
2023/09/06 02:48:48;;;;;;;164.40;155.77;;;;;;;;;;5039003;28;20447;-43
2023/09/06 02:51:17;;;;;;;173.93;164.07;;;;;;;;;;5031089;28;20832;-40
2023/09/06 02:53:45;;;;;;;169.30;159.97;;;;;;;;;;5042467;28;20459;-40
2023/09/06 02:56:14;;;;;;;188.93;178.90;;;;;;;;;;5046276;28;21015;-40
2023/09/06 02:58:42;;;;;;;176.30;166.83;;;;;;;;;;5043442;28;20437;-43
2023/09/06 03:01:19;;;;;;;191.27;181.10;;;;;;;;;;5035236;28;20437;-40
2023/09/06 03:03:51;;;;;;;179.60;169.53;;;;;;;;;;5046944;28;20851;-40
2023/09/06 03:06:20;;;;;;;182.33;172.73;;;;;;;;;;5052452;28;20465;-42
2023/09/06 03:08:51;;;;;;;170.47;162.10;;;;;;;;;;5063348;28;20431;-40
2023/09/06 03:11:18;;;;;;;172.63;163.80;;;;;;;;;;5062947;28;20485;-41
2023/09/06 03:13:45;;;;;;;179.60;170.80;;;;;;;;;;5054417;28;20459;-40
2023/09/06 03:16:13;;;;;;;173.87;165.67;;;;;;;;;;5054241;28;20986;-41
2023/09/06 03:18:43;;;;;;;177.00;167.93;;;;;;;;;;5054551;28;20446;-41
2023/09/06 03:21:12;;;;;;;199.27;188.83;;;;;;;;;;5062778;28;20447;-43
2023/09/06 03:23:44;;;;;;;190.90;181.70;;;;;;;;;;5054437;28;20462;-41
2023/09/06 03:26:12;;;;;;;188.13;178.50;;;;;;;;;;5049385;28;20988;-42
2023/09/06 03:28:40;;;;;;;204.40;194.70;;;;;;;;;;5042752;28;20526;-41
2023/09/06 03:31:09;;;;;;;183.67;175.13;;;;;;;;;;5042646;28;20494;-41
2023/09/06 03:33:39;;;;;;;186.60;178.20;;;;;;;;;;5050890;28;20455;-40
2023/09/06 03:36:07;;;;;;;193.13;184.03;;;;;;;;;;5048420;28;20536;-41
2023/09/06 03:38:36;;;;;;;178.33;170.20;;;;;;;;;;5046134;28;20506;-43
2023/09/06 03:41:07;;;;;;;182.70;174.20;;;;;;;;;;5048649;28;20439;-43
2023/09/06 03:43:35;;;;;;;173.87;166.00;;;;;;;;;;5050584;28;20539;-43
2023/09/06 03:46:07;;;;;;;185.57;176.30;;;;;;;;;;5042505;28;20506;-40
2023/09/06 03:48:35;;;;;;;178.23;169.90;;;;;;;;;;5034507;28;20482;-43
2023/09/06 03:51:04;;;;;;;177.50;169.30;;;;;;;;;;5039993;28;20488;-40
2023/09/06 03:53:33;;;;;;;180.77;171.80;;;;;;;;;;5037455;28;22193;-42
2023/09/06 03:56:01;;;;;;;180.13;170.63;;;;;;;;;;5051560;28;20494;-40
2023/09/06 03:58:30;;;;;;;179.27;171.33;;;;;;;;;;5053971;28;20783;-40
2023/09/06 04:00:58;;;;;;;181.03;172.20;;;;;;;;;;5066993;28;20445;-40
2023/09/06 04:03:26;;;;;;;202.97;193.03;;;;;;;;;;5065400;28;20442;-42
2023/09/06 04:05:55;;;;;;;190.03;180.23;;;;;;;;;;5060408;28;20465;-43
2023/09/06 04:08:28;;;;;;;202.10;191.60;;;;;;;;;;5053255;28;20492;-42
2023/09/06 04:10:56;;;;;;;185.03;175.73;;;;;;;;;;5053836;28;20443;-40
2023/09/06 04:13:24;;;;;;;189.80;179.77;;;;;;;;;;5061689;28;20477;-40
2023/09/06 04:15:53;;;;;;;198.30;187.10;;;;;;;;;;5061045;28;20473;-40
2023/09/06 04:18:21;;;;;;;193.07;183.23;;;;;;;;;;5053907;28;20432;-40
2023/09/06 04:20:49;;;;;;;208.57;197.17;;;;;;;;;;5073411;28;20527;-43
2023/09/06 04:23:17;;;;;;;198.33;187.80;;;;;;;;;;5064952;28;20820;-40
2023/09/06 04:25:45;;;;;;;214.57;202.33;;;;;;;;;;5052601;28;20861;-43
2023/09/06 04:28:14;;;;;;;208.90;197.80;;;;;;;;;;5033651;28;20431;-42
2023/09/06 04:30:43;;;;;;;196.70;186.77;;;;;;;;;;5041713;28;20467;-45
2023/09/06 04:33:14;;;;;;;198.53;188.90;;;;;;;;;;5041739;28;20490;-44
2023/09/06 04:35:42;;;;;;;205.53;195.30;;;;;;;;;;5043314;28;20463;-41
2023/09/06 04:38:11;;;;;;;208.40;197.40;;;;;;;;;;5044924;28;20443;-43
2023/09/06 04:40:39;;;;;;;197.33;186.40;;;;;;;;;;5051269;28;20435;-45
2023/09/06 04:43:08;;;;;;;203.23;192.23;;;;;;;;;;5047215;28;20431;-42
2023/09/06 04:45:37;;;;;;;197.43;186.63;;;;;;;;;;5044246;28;20464;-46
2023/09/06 04:48:05;;;;;;;195.03;184.30;;;;;;;;;;5053290;28;20538;-42
2023/09/06 04:50:34;;;;;;;199.73;189.07;;;;;;;;;;5052675;28;20463;-43
2023/09/06 04:53:02;;;;;;;197.77;187.00;;;;;;;;;;5052846;28;20438;-40
2023/09/06 04:55:33;;;;;;;194.03;183.33;;;;;;;;;;5035394;28;20480;-40
2023/09/06 04:58:01;;;;;;;197.47;186.57;;;;;;;;;;5032957;28;20515;-40
2023/09/06 05:00:32;;;;;;;204.57;193.53;;;;;;;;;;5032544;28;20451;-40
2023/09/06 05:03:01;;;;;;;190.37;180.87;;;;;;;;;;5032501;28;20800;-42
2023/09/06 05:05:28;;;;;;;204.37;193.87;;;;;;;;;;5032365;28;20499;-43
2023/09/06 05:07:59;;;;;;;185.80;176.80;;;;;;;;;;5032943;28;20436;-42
2023/09/06 05:10:26;;;;;;;197.60;186.47;;;;;;;;;;5032585;28;20524;-40
2023/09/06 05:12:54;;;;;;;198.37;188.07;;;;;;;;;;5024503;28;21149;-42
2023/09/06 05:15:21;;;;;;;181.63;172.23;;;;;;;;;;5031824;28;20459;-42
2023/09/06 05:17:49;;;;;;;158.13;150.63;;;;;;;;;;5032017;28;20435;-42
2023/09/06 05:20:30;;;;;;;154.03;146.40;;;;;;;;;;5032380;28;20932;-40
2023/09/06 05:23:00;;;;;;;167.93;159.73;;;;;;;;;;5024568;28;20957;-40
2023/09/06 05:25:27;;;;;;;176.07;167.63;;;;;;;;;;5031622;28;20836;-40
2023/09/06 05:27:58;;;;;;;178.53;169.77;;;;;;;;;;5032533;28;20856;-40
2023/09/06 05:30:25;;;;;;;187.33;178.67;;;;;;;;;;5032355;28;20432;-40
2023/09/06 05:32:54;;;;;;;149.87;143.17;;;;;;;;;;5031963;28;20440;-40
2023/09/06 05:35:22;;;;;;;147.97;140.53;;;;;;;;;;5031624;28;20828;-40
2023/09/06 05:37:49;;;;;;;133.57;127.07;;;;;;;;;;5032033;28;20438;-41
2023/09/06 05:40:22;;;;;;;134.20;128.10;;;;;;;;;;5031910;28;20514;-41
2023/09/06 05:42:50;;;;;;;126.10;120.30;;;;;;;;;;5032003;28;20432;-40
2023/09/06 05:45:18;;;;;;;119.67;114.07;;;;;;;;;;5031645;28;20483;-43
2023/09/06 05:47:45;;;;;;;115.27;109.83;;;;;;;;;;5031803;28;20478;-40
2023/09/06 05:50:13;;;;;;;109.80;104.53;;;;;;;;;;5032100;28;20436;-40
2023/09/06 05:52:41;;;;;;;112.37;106.80;;;;;;;;;;5031481;28;20432;-40
2023/09/06 05:55:10;;;;;;;91.93;87.77;;;;;;;;;;5031214;28;20468;-40
2023/09/06 05:57:39;;;;;;;87.77;83.43;;;;;;;;;;5031805;28;20878;-41
2023/09/06 06:00:12;;;;;;;80.93;76.83;;;;;;;;;;5031904;28;20442;-43
2023/09/06 06:02:41;;;;;;;79.10;75.00;;;;;;;;;;5031562;28;20443;-40
2023/09/06 06:05:09;;;;;;;73.23;69.47;;;;;;;;;;5035597;28;20462;-41
2023/09/06 06:07:37;;;;;;;67.90;64.00;;;;;;;;;;5051656;28;20435;-40
2023/09/06 06:10:05;;;;;;;63.33;60.00;;;;;;;;;;5051748;28;20485;-40
2023/09/06 06:12:32;;;;;;;66.40;63.00;;;;;;;;;;5051081;28;20978;-41
2023/09/06 06:15:03;;;;;;;63.17;59.90;;;;;;;;;;5050966;28;20807;-44
2023/09/06 06:17:30;;;;;;;68.87;65.20;;;;;;;;;;5051319;28;20493;-42
2023/09/06 06:19:58;;;;;;;63.80;60.50;;;;;;;;;;5051283;28;20965;-41
2023/09/06 06:22:25;;;;;;;59.00;55.93;;;;;;;;;;5051256;28;20431;-44
2023/09/06 06:24:53;;;;;;;58.77;55.47;;;;;;;;;;5050596;28;20454;-40
2023/09/06 06:27:20;;;;;;;58.60;55.20;;;;;;;;;;5051161;28;20514;-41
2023/09/06 06:29:48;;;;;;;55.20;52.20;;;;;;;;;;5050608;28;20430;-41
2023/09/06 06:32:19;;;;;;;51.80;48.90;;;;;;;;;;5051098;28;20431;-43
2023/09/06 06:34:49;;;;;;;48.17;45.63;;;;;;;;;;5050344;28;20538;-40
2023/09/06 06:37:17;;;;;;;43.00;40.77;;;;;;;;;;5051212;28;20467;-40
2023/09/06 06:39:44;;;;;;;43.00;40.50;;;;;;;;;;5050953;28;20919;-41
2023/09/06 06:42:12;;;;;;;37.40;35.30;;;;;;;;;;5051112;28;20525;-45
2023/09/06 06:44:45;;;;;;;40.63;38.27;;;;;;;;;;5050159;28;20573;-41
2023/09/06 06:47:13;;;;;;;35.53;33.23;;;;;;;;;;5051415;28;20427;-41
2023/09/06 06:49:41;;;;;;;33.60;31.50;;;;;;;;;;5051322;28;20443;-40
2023/09/06 06:52:09;;;;;;;34.10;31.60;;;;;;;;;;5050998;28;20992;-40
2023/09/06 06:54:40;;;;;;;32.07;30.03;;;;;;;;;;5050182;28;20443;-42
2023/09/06 06:57:08;;;;;;;34.87;32.47;;;;;;;;;;5050910;28;20558;-41
2023/09/06 06:59:35;;;;;;;32.90;30.70;;;;;;;;;;5050945;28;20522;-43
2023/09/06 07:02:03;;;;;;;33.97;31.67;;;;;;;;;;5051130;28;20434;-41
2023/09/06 07:04:31;;;;;;;33.47;31.27;;;;;;;;;;5050691;28;20505;-43
2023/09/06 07:07:00;;;;;;;33.47;31.00;;;;;;;;;;5050434;28;20861;-44
2023/09/06 07:09:27;;;;;;;30.57;28.67;;;;;;;;;;5050786;28;20517;-41
2023/09/06 07:11:55;;;;;;;31.17;29.00;;;;;;;;;;5050811;28;20514;-41
2023/09/06 07:14:22;;;;;;;28.77;26.97;;;;;;;;;;5050489;28;20458;-41
2023/09/06 07:16:50;;;;;;;30.37;28.27;;;;;;;;;;5050194;28;20966;-41
2023/09/06 07:19:18;;;;;;;30.00;28.03;;;;;;;;;;5050967;28;20517;-43
2023/09/06 07:21:46;;;;;;;33.47;31.17;;;;;;;;;;5050686;28;20469;-43
2023/09/06 07:24:15;;;;;;;31.90;29.60;;;;;;;;;;5050135;28;20450;-40
2023/09/06 07:26:43;;;;;;;32.47;30.33;;;;;;;;;;5050100;28;20524;-41
2023/09/06 07:29:10;;;;;;;29.30;27.37;;;;;;;;;;5050910;28;20441;-46
2023/09/06 07:31:39;;;;;;;27.40;25.80;;;;;;;;;;5050455;28;20911;-41
2023/09/06 07:34:07;;;;;;;27.43;25.67;;;;;;;;;;5050265;28;20962;-41
2023/09/06 07:36:35;;;;;;;30.63;27.63;;;;;;;;;;5050016;28;20459;-40
2023/09/06 07:39:02;;;;;;;29.07;27.07;;;;;;;;;;5050677;28;20438;-41
2023/09/06 07:41:31;;;;;;;26.73;24.93;;;;;;;;;;5052345;28;20699;-41
2023/09/06 07:43:59;;;;;;;26.30;24.30;;;;;;;;;;5053855;28;20455;-41
2023/09/06 07:46:29;;;;;;;25.80;24.10;;;;;;;;;;5053652;28;20473;-44
2023/09/06 07:48:57;;;;;;;24.20;22.50;;;;;;;;;;5054157;28;20803;-43
2023/09/06 07:51:25;;;;;;;21.47;20.17;;;;;;;;;;5054020;28;20438;-41
2023/09/06 07:53:53;;;;;;;20.37;19.10;;;;;;;;;;5053950;28;20457;-41
2023/09/06 07:56:21;;;;;;;20.40;19.10;;;;;;;;;;5053716;28;20512;-41
2023/09/06 07:58:50;;;;;;;18.90;17.83;;;;;;;;;;5053824;28;20481;-42
2023/09/06 08:01:17;;;;;;;18.13;17.03;;;;;;;;;;5053858;28;20948;-40
2023/09/06 08:03:46;;;;;;;18.20;17.20;;;;;;;;;;5053464;28;20826;-44
2023/09/06 08:06:15;;;;;;;17.77;16.67;;;;;;;;;;5053560;28;20512;-43
2023/09/06 08:08:44;;;;;;;17.13;16.10;;;;;;;;;;5053658;28;21033;-42
2023/09/06 08:11:12;;;;;;;15.10;14.30;;;;;;;;;;5053914;28;20438;-41
2023/09/06 08:13:41;;;;;;;13.77;12.90;;;;;;;;;;5053257;28;20474;-42
2023/09/06 08:16:10;;;;;;;12.90;12.20;;;;;;;;;;5053144;28;20463;-40
2023/09/06 08:18:39;;;;;;;13.47;12.50;;;;;;;;;;5053330;28;20557;-40
2023/09/06 08:21:07;;;;;;;12.70;12.10;;;;;;;;;;5053795;28;20431;-41
2023/09/06 08:23:35;;;;;;;12.20;11.60;;;;;;;;;;5053037;28;20473;-45
2023/09/06 08:26:03;;;;;;;12.50;11.80;;;;;;;;;;5053097;28;20550;-43
2023/09/06 08:28:31;;;;;;;12.67;11.80;;;;;;;;;;5053237;28;20489;-40
2023/09/06 08:31:01;;;;;;;11.77;11.07;;;;;;;;;;5053158;28;20788;-40
2023/09/06 08:33:30;;;;;;;14.00;13.23;;;;;;;;;;5053280;28;20514;-43
2023/09/06 08:35:59;;;;;;;12.23;11.57;;;;;;;;;;5041710;28;20471;-43
2023/09/06 08:38:27;;;;;;;12.10;11.50;;;;;;;;;;5033226;28;20487;-44
2023/09/06 08:40:54;;;;;;;12.50;11.77;;;;;;;;;;5052164;28;20529;-42
2023/09/06 08:43:23;;;;;;;13.60;12.77;;;;;;;;;;5038599;28;20439;-41
2023/09/06 08:45:51;;;;;;;14.43;13.67;;;;;;;;;;5043022;28;20463;-41
2023/09/06 08:48:18;;;;;;;14.33;13.53;;;;;;;;;;5053337;28;20437;-43
2023/09/06 08:50:48;;;;;;;13.90;13.00;;;;;;;;;;5052952;28;20435;-41
2023/09/06 08:53:16;;;;;;;16.00;14.77;;;;;;;;;;5052062;28;20446;-44
2023/09/06 08:55:44;;;;;;;14.67;13.80;;;;;;;;;;5052544;28;20458;-45
2023/09/06 08:58:11;;;;;;;14.07;13.17;;;;;;;;;;5052690;28;20853;-41
2023/09/06 09:00:39;;;;;;;14.23;13.33;;;;;;;;;;5052762;28;20438;-41
2023/09/06 09:03:07;;;;;;;14.37;13.17;;;;;;;;;;5052712;28;20441;-41
2023/09/06 09:05:35;;;;;;;14.27;13.27;;;;;;;;;;5052440;28;20557;-44
2023/09/06 09:08:05;;;;;;;13.90;13.03;;;;;;;;;;5072613;28;20517;-44
2023/09/06 09:10:33;;;;;;;13.63;12.67;;;;;;;;;;5072487;28;20967;-42
2023/09/06 09:13:01;;;;;;;13.20;12.50;;;;;;;;;;5072309;28;20445;-41
2023/09/06 09:15:30;;;;;;;14.40;13.27;;;;;;;;;;5065055;28;20463;-41
2023/09/06 09:17:58;;;;;;;13.30;12.40;;;;;;;;;;5044014;28;20481;-40
2023/09/06 09:20:29;;;;;;;13.00;12.27;;;;;;;;;;5052454;28;20435;-41
2023/09/06 09:22:59;;;;;;;10.83;10.00;;;;;;;;;;5049667;28;20782;-41
2023/09/06 09:25:27;;;;;;;12.10;11.30;;;;;;;;;;5051993;28;20957;-43
2023/09/06 09:27:57;;;;;;;11.83;11.00;;;;;;;;;;5052407;28;20435;-44
2023/09/06 09:30:26;;;;;;;11.73;11.03;;;;;;;;;;5052257;28;20445;-43
2023/09/06 09:32:57;;;;;;;11.67;10.90;;;;;;;;;;5051621;28;20602;-43
2023/09/06 09:35:26;;;;;;;9.53;8.87;;;;;;;;;;5045489;28;20835;-42
2023/09/06 09:37:56;;;;;;;8.30;7.80;;;;;;;;;;5042103;28;20471;-45
2023/09/06 09:40:32;;;;;;;10.90;10.20;;;;;;;;;;5052203;28;20431;-42
2023/09/06 09:43:20;;;;;;;8.90;8.20;;;;;;;;;;5051640;28;20454;-45
2023/09/06 09:45:48;;;;;;;9.27;8.77;;;;;;;;;;5051500;28;20828;-42
2023/09/06 09:48:16;;;;;;;9.77;9.07;;;;;;;;;;5038762;28;20439;-43
2023/09/06 09:50:46;;;;;;;10.10;9.57;;;;;;;;;;5049029;28;20434;-44
2023/09/06 09:53:15;;;;;;;10.47;9.77;;;;;;;;;;5043598;28;20431;-45
2023/09/06 09:55:49;;;;;;;9.80;9.20;;;;;;;;;;5043467;28;20993;-41
2023/09/06 09:58:17;;;;;;;8.60;8.10;;;;;;;;;;5051598;28;20477;-45
2023/09/06 10:00:49;;;;;;;8.30;7.70;;;;;;;;;;5050979;28;20441;-42
2023/09/06 10:03:18;;;;;;;8.57;8.17;;;;;;;;;;5039944;28;20847;-41
2023/09/06 10:05:47;;;;;;;7.80;7.27;;;;;;;;;;5047617;28;20516;-41
2023/09/06 10:08:16;;;;;;;9.43;8.63;;;;;;;;;;5047024;28;20911;-43
2023/09/06 10:10:44;;;;;;;8.50;7.87;;;;;;;;;;5048278;28;20847;-41
2023/09/06 10:13:14;;;;;;;8.60;8.10;;;;;;;;;;5051064;28;20470;-41
2023/09/06 10:15:43;;;;;;;7.20;6.70;;;;;;;;;;5051200;28;20463;-41
2023/09/06 10:18:13;;;;;;;8.57;7.60;;;;;;;;;;5047430;28;20427;-44
2023/09/06 10:20:41;;;;;;;11.23;9.13;;;;;;;;;;5047777;28;20488;-41
2023/09/06 10:23:08;;;;;;;8.00;7.60;;;;;;;;;;5040199;28;20435;-41
2023/09/06 10:25:40;;;;;;;7.87;7.20;;;;;;;;;;5050572;28;20884;-43
2023/09/06 10:28:08;;;;;;;7.83;7.10;;;;;;;;;;5051790;28;20505;-44
2023/09/06 10:30:43;;;;;;;6.37;6.07;;;;;;;;;;5051241;28;20466;-44
2023/09/06 10:33:42;;;;;;;6.90;6.50;;;;;;;;;;5051347;28;20819;-43
2023/09/06 10:36:10;;;;;;;6.97;6.57;;;;;;;;;;5031174;28;20480;-45
2023/09/06 10:39:10;;;;;;;6.80;6.50;;;;;;;;;;5031477;28;20487;-41
2023/09/06 10:41:37;;;;;;;6.07;5.77;;;;;;;;;;5035222;28;20431;-42
2023/09/06 10:44:07;;;;;;;7.40;6.77;;;;;;;;;;5047656;28;20447;-41
2023/09/06 10:46:34;;;;;;;7.43;6.83;;;;;;;;;;5055052;28;20834;-41
2023/09/06 10:49:19;;;;;;;5.87;5.53;;;;;;;;;;5051325;28;20427;-42
2023/09/06 10:51:59;;;;;;;6.83;6.27;;;;;;;;;;5059395;28;20912;-44
2023/09/06 10:54:34;;;;;;;6.47;6.07;;;;;;;;;;5050873;28;20541;-44
2023/09/06 10:57:05;;;;;;;6.70;6.10;;;;;;;;;;5030732;28;21144;-43
2023/09/06 10:59:36;;;;;;;6.30;5.80;;;;;;;;;;5031331;28;20463;-41
2023/09/06 11:02:07;;;;;;;6.03;5.63;;;;;;;;;;5031307;28;20431;-44
2023/09/06 11:04:37;;;;;;;6.37;5.90;;;;;;;;;;5031040;28;20491;-41
2023/09/06 11:07:09;;;;;;;5.93;5.53;;;;;;;;;;5030963;28;20447;-43
2023/09/06 11:09:44;;;;;;;5.27;4.97;;;;;;;;;;5030979;28;20924;-43
2023/09/06 11:12:12;;;;;;;5.90;5.60;;;;;;;;;;5031198;28;20457;-42
2023/09/06 11:14:40;;;;;;;5.87;5.47;;;;;;;;;;5030619;28;20473;-45
2023/09/06 11:17:07;;;;;;;6.20;5.47;;;;;;;;;;5053947;28;20959;-41
2023/09/06 11:19:36;;;;;;;5.80;5.40;;;;;;;;;;5054862;28;20546;-43
2023/09/06 11:22:04;;;;;;;5.47;4.93;;;;;;;;;;5054585;28;20485;-42
2023/09/06 11:24:32;;;;;;;6.47;6.00;;;;;;;;;;5054584;28;20446;-45
2023/09/06 11:27:03;;;;;;;6.73;6.30;;;;;;;;;;5054142;28;20457;-42
2023/09/06 11:29:31;;;;;;;7.00;6.30;;;;;;;;;;5054707;28;20422;-45
2023/09/06 11:32:08;;;;;;;5.70;5.30;;;;;;;;;;5054360;28;20426;-40
2023/09/06 11:34:43;;;;;;;6.30;6.00;;;;;;;;;;5054267;28;20451;-42
2023/09/06 11:37:14;;;;;;;5.90;5.50;;;;;;;;;;5046286;28;20857;-42
2023/09/06 11:39:42;;;;;;;7.00;6.60;;;;;;;;;;5054479;28;20477;-43
2023/09/06 11:42:13;;;;;;;6.30;5.90;;;;;;;;;;5054244;28;20422;-43
2023/09/06 11:44:47;;;;;;;7.70;6.57;;;;;;;;;;5053596;28;20482;-43
2023/09/06 11:47:16;;;;;;;5.80;5.50;;;;;;;;;;5046719;28;20481;-40
2023/09/06 11:49:46;;;;;;;7.47;6.90;;;;;;;;;;5054356;28;20431;-46
2023/09/06 11:52:15;;;;;;;7.70;7.00;;;;;;;;;;5054025;28;20463;-43
2023/09/06 11:54:45;;;;;;;8.83;7.93;;;;;;;;;;5053330;28;20454;-41
2023/09/06 11:57:22;;;;;;;8.03;7.43;;;;;;;;;;5045874;28;20439;-41
2023/09/06 11:59:52;;;;;;;7.40;7.00;;;;;;;;;;5053844;28;20861;-42
2023/09/06 12:02:21;;;;;;;7.27;6.80;;;;;;;;;;5054111;28;20484;-41
2023/09/06 12:04:55;;;;;;;7.70;7.00;;;;;;;;;;5053409;28;20455;-46
2023/09/06 12:07:24;;;;;;;8.07;7.47;;;;;;;;;;5052906;28;20511;-43
2023/09/06 12:09:54;;;;;;;8.07;7.47;;;;;;;;;;5053682;28;20505;-41
2023/09/06 12:12:21;;;;;;;9.83;9.00;;;;;;;;;;5053867;28;20435;-44
2023/09/06 12:14:50;;;;;;;9.97;9.30;;;;;;;;;;5053141;28;20988;-41
2023/09/06 12:17:18;;;;;;;8.40;7.80;;;;;;;;;;5053790;28;20435;-41
2023/09/06 12:19:57;;;;;;;7.83;7.13;;;;;;;;;;5053691;28;20978;-41
2023/09/06 12:22:26;;;;;;;8.00;7.50;;;;;;;;;;5053903;28;20518;-42
2023/09/06 12:24:55;;;;;;;6.57;6.17;;;;;;;;;;5052659;28;20482;-42
2023/09/06 12:27:24;;;;;;;7.70;7.30;;;;;;;;;;5052715;28;20459;-39
2023/09/06 12:29:52;;;;;;;8.80;8.20;;;;;;;;;;5053260;28;20454;-40
2023/09/06 12:32:19;;;;;;;8.40;7.70;;;;;;;;;;5053399;28;20780;-40
2023/09/06 12:34:47;;;;;;;8.27;7.47;;;;;;;;;;5052715;28;20487;-40
2023/09/06 12:37:17;;;;;;;7.27;6.87;;;;;;;;;;5053516;28;20525;-43
2023/09/06 12:39:47;;;;;;;7.87;7.37;;;;;;;;;;5053274;28;20566;-41
2023/09/06 12:42:14;;;;;;;7.50;7.00;;;;;;;;;;5053395;28;20435;-40
2023/09/06 12:44:42;;;;;;;7.57;7.07;;;;;;;;;;5052504;28;20454;-41
2023/09/06 12:47:10;;;;;;;8.20;7.80;;;;;;;;;;5052940;28;20439;-40
2023/09/06 12:49:38;;;;;;;7.20;6.80;;;;;;;;;;5053223;28;20431;-42
2023/09/06 12:52:05;;;;;;;8.90;8.23;;;;;;;;;;5053300;28;20465;-42
2023/09/06 12:54:33;;;;;;;7.27;6.87;;;;;;;;;;5052902;28;20487;-39
2023/09/06 12:57:02;;;;;;;8.30;7.60;;;;;;;;;;5052645;28;20466;-41
2023/09/06 12:59:29;;;;;;;7.70;7.20;;;;;;;;;;5053068;28;20485;-43
2023/09/06 13:01:57;;;;;;;8.50;7.60;;;;;;;;;;5052700;28;20506;-41
2023/09/06 13:04:24;;;;;;;7.87;7.37;;;;;;;;;;5052877;28;20446;-46
2023/09/06 13:06:52;;;;;;;7.97;7.13;;;;;;;;;;5052146;28;20854;-41
2023/09/06 13:09:20;;;;;;;8.50;7.67;;;;;;;;;;5052897;28;20431;-46
2023/09/06 13:11:47;;;;;;;6.57;6.27;;;;;;;;;;5052729;28;20431;-40
2023/09/06 13:14:16;;;;;;;7.10;6.57;;;;;;;;;;5052118;28;20486;-41
2023/09/06 13:16:44;;;;;;;6.77;6.37;;;;;;;;;;5052139;28;20461;-41
2023/09/06 13:19:12;;;;;;;6.80;6.30;;;;;;;;;;5052723;28;20510;-41
2023/09/06 13:21:42;;;;;;;7.30;6.80;;;;;;;;;;5052361;28;20486;-40
2023/09/06 13:24:12;;;;;;;6.20;5.80;;;;;;;;;;5052128;28;20455;-43
2023/09/06 13:26:40;;;;;;;6.90;6.50;;;;;;;;;;5052019;28;20541;-41
2023/09/06 13:29:07;;;;;;;6.77;5.80;;;;;;;;;;5052137;28;20438;-41
2023/09/06 13:31:36;;;;;;;6.57;6.17;;;;;;;;;;5052096;28;20459;-42
2023/09/06 13:34:04;;;;;;;6.10;5.80;;;;;;;;;;5051974;28;20836;-43
2023/09/06 13:36:35;;;;;;;5.70;5.40;;;;;;;;;;5051868;28;20545;-41
2023/09/06 13:39:04;;;;;;;7.20;6.70;;;;;;;;;;5052127;28;20435;-40
2023/09/06 13:41:32;;;;;;;7.60;6.83;;;;;;;;;;5051849;28;20466;-42
2023/09/06 13:44:00;;;;;;;5.90;5.50;;;;;;;;;;5060199;28;20447;-42
2023/09/06 13:46:27;;;;;;;6.00;5.40;;;;;;;;;;5051142;28;20458;-43
2023/09/06 13:48:58;;;;;;;6.07;5.43;;;;;;;;;;5051998;28;20435;-41
2023/09/06 13:51:25;;;;;;;6.50;5.53;;;;;;;;;;5052132;28;20427;-40
2023/09/06 13:53:54;;;;;;;6.43;5.87;;;;;;;;;;5051454;28;20819;-41
2023/09/06 13:56:21;;;;;;;6.07;5.70;;;;;;;;;;5051377;28;20982;-40
2023/09/06 13:58:49;;;;;;;6.50;5.90;;;;;;;;;;5052021;28;20438;-42
2023/09/06 14:01:16;;;;;;;5.47;5.17;;;;;;;;;;5051809;28;20532;-43
2023/09/06 14:03:44;;;;;;;6.33;5.67;;;;;;;;;;5051931;28;20462;-40
2023/09/06 14:06:13;;;;;;;6.00;5.50;;;;;;;;;;5051136;28;20454;-41
2023/09/06 14:08:40;;;;;;;5.97;5.67;;;;;;;;;;5052233;28;20457;-40
2023/09/06 14:11:08;;;;;;;5.07;4.70;;;;;;;;;;5051755;28;20427;-42
2023/09/06 14:13:36;;;;;;;6.53;6.03;;;;;;;;;;5051351;28;20462;-40
2023/09/06 14:16:06;;;;;;;5.60;5.30;;;;;;;;;;5050963;28;20853;-41
2023/09/06 14:18:34;;;;;;;6.10;5.70;;;;;;;;;;5051710;28;20484;-41
2023/09/06 14:21:01;;;;;;;6.93;5.17;;;;;;;;;;5051196;28;20502;-42
2023/09/06 14:23:30;;;;;;;5.93;5.40;;;;;;;;;;5051363;28;20513;-46
2023/09/06 14:25:57;;;;;;;6.33;5.80;;;;;;;;;;5050764;28;20826;-44